sensor_id;sensor_type;location;lat;lon;timestamp;pressure;altitude;pressure_sealevel;temperature;humidity
84308;BME280;74486;52.070;5.128;2023-12-29T00:00:42;100715.41;;;10.39;87.62
84308;BME280;74486;52.070;5.128;2023-12-29T00:03:08;100722.63;;;10.26;90.35
84308;BME280;74486;52.070;5.128;2023-12-29T00:05:34;100708.91;;;9.94;94.31
84308;BME280;74486;52.070;5.128;2023-12-29T00:07:59;100716.09;;;9.81;96.56
84308;BME280;74486;52.070;5.128;2023-12-29T00:10:25;100712.59;;;9.63;98.68
84308;BME280;74486;52.070;5.128;2023-12-29T00:12:50;100709.06;;;9.44;100.00
84308;BME280;74486;52.070;5.128;2023-12-29T00:15:18;100704.16;;;9.33;100.00
84308;BME280;74486;52.070;5.128;2023-12-29T00:17:44;100688.34;;;9.30;100.00
84308;BME280;74486;52.070;5.128;2023-12-29T00:20:10;100692.94;;;9.34;100.00
84308;BME280;74486;52.070;5.128;2023-12-29T00:22:35;100682.19;;;9.45;100.00
84308;BME280;74486;52.070;5.128;2023-12-29T00:25:01;100709.38;;;9.50;100.00
84308;BME280;74486;52.070;5.128;2023-12-29T00:27:27;100693.22;;;9.57;98.71
84308;BME280;74486;52.070;5.128;2023-12-29T00:29:52;100694.38;;;9.64;97.81
84308;BME280;74486;52.070;5.128;2023-12-29T00:32:19;100698.84;;;9.84;95.57
84308;BME280;74486;52.070;5.128;2023-12-29T00:34:44;100693.84;;;9.89;94.32
84308;BME280;74486;52.070;5.128;2023-12-29T00:37:10;100680.31;;;9.97;93.02
84308;BME280;74486;52.070;5.128;2023-12-29T00:39:35;100709.28;;;10.02;91.77
84308;BME280;74486;52.070;5.128;2023-12-29T00:42:01;100679.09;;;10.09;91.01
84308;BME280;74486;52.070;5.128;2023-12-29T00:44:26;100675.69;;;10.10;91.70
84308;BME280;74486;52.070;5.128;2023-12-29T00:46:52;100680.13;;;10.12;90.50
84308;BME280;74486;52.070;5.128;2023-12-29T00:49:19;100674.91;;;10.12;90.12
84308;BME280;74486;52.070;5.128;2023-12-29T00:51:45;100688.13;;;10.15;90.51
84308;BME280;74486;52.070;5.128;2023-12-29T00:54:10;100688.38;;;10.20;89.74
84308;BME280;74486;52.070;5.128;2023-12-29T00:56:36;100677.25;;;10.24;89.90
84308;BME280;74486;52.070;5.128;2023-12-29T00:59:01;100693.81;;;10.24;88.99
84308;BME280;74486;52.070;5.128;2023-12-29T01:01:27;100669.06;;;10.35;88.48
84308;BME280;74486;52.070;5.128;2023-12-29T01:03:52;100696.75;;;10.32;88.88
84308;BME280;74486;52.070;5.128;2023-12-29T01:06:19;100679.03;;;10.25;89.78
84308;BME280;74486;52.070;5.128;2023-12-29T01:08:44;100691.13;;;10.23;89.73
84308;BME280;74486;52.070;5.128;2023-12-29T01:11:10;100687.69;;;10.24;89.37
84308;BME280;74486;52.070;5.128;2023-12-29T01:13:35;100689.97;;;10.16;90.67
84308;BME280;74486;52.070;5.128;2023-12-29T01:16:01;100667.31;;;10.17;90.29
84308;BME280;74486;52.070;5.128;2023-12-29T01:18:26;100679.31;;;10.13;90.58
84308;BME280;74486;52.070;5.128;2023-12-29T01:20:52;100653.88;;;10.09;90.61
84308;BME280;74486;52.070;5.128;2023-12-29T01:23:19;100681.28;;;10.17;90.21
84308;BME280;74486;52.070;5.128;2023-12-29T01:25:44;100662.63;;;10.10;91.34
84308;BME280;74486;52.070;5.128;2023-12-29T01:28:10;100657.41;;;10.10;90.96
84308;BME280;74486;52.070;5.128;2023-12-29T01:30:35;100657.31;;;10.08;90.48
84308;BME280;74486;52.070;5.128;2023-12-29T01:33:01;100662.34;;;10.03;90.95
84308;BME280;74486;52.070;5.128;2023-12-29T01:35:26;100653.59;;;10.03;91.55
84308;BME280;74486;52.070;5.128;2023-12-29T01:37:51;100649.16;;;10.00;91.43
84308;BME280;74486;52.070;5.128;2023-12-29T01:40:18;100659.59;;;10.00;91.57
84308;BME280;74486;52.070;5.128;2023-12-29T01:42:44;100662.34;;;10.03;91.57
84308;BME280;74486;52.070;5.128;2023-12-29T01:45:20;100671.06;;;10.04;91.38
84308;BME280;74486;52.070;5.128;2023-12-29T01:47:46;100657.13;;;10.03;91.67
84308;BME280;74486;52.070;5.128;2023-12-29T01:50:12;100651.00;;;10.03;91.25
84308;BME280;74486;52.070;5.128;2023-12-29T01:52:38;100668.53;;;10.06;90.85
84308;BME280;74486;52.070;5.128;2023-12-29T01:55:04;100674.50;;;10.03;92.02
84308;BME280;74486;52.070;5.128;2023-12-29T01:57:31;100656.22;;;10.03;91.48
84308;BME280;74486;52.070;5.128;2023-12-29T01:59:57;100669.97;;;9.99;92.72
84308;BME280;74486;52.070;5.128;2023-12-29T02:02:22;100669.34;;;10.04;91.91
84308;BME280;74486;52.070;5.128;2023-12-29T02:04:48;100674.38;;;10.00;92.15
84308;BME280;74486;52.070;5.128;2023-12-29T02:07:13;100672.78;;;10.03;92.24
84308;BME280;74486;52.070;5.128;2023-12-29T02:09:40;100671.88;;;10.03;92.27
84308;BME280;74486;52.070;5.128;2023-12-29T02:12:07;100667.56;;;10.03;92.35
84308;BME280;74486;52.070;5.128;2023-12-29T02:14:34;100679.59;;;10.00;92.86
84308;BME280;74486;52.070;5.128;2023-12-29T02:17:06;100684.69;;;9.97;93.66
84308;BME280;74486;52.070;5.128;2023-12-29T02:19:40;100687.00;;;9.91;93.74
84308;BME280;74486;52.070;5.128;2023-12-29T02:22:06;100676.38;;;9.88;94.96
84308;BME280;74486;52.070;5.128;2023-12-29T02:24:33;100687.50;;;9.84;94.96
84308;BME280;74486;52.070;5.128;2023-12-29T02:27:07;100670.06;;;9.83;94.95
84308;BME280;74486;52.070;5.128;2023-12-29T02:29:38;100675.06;;;9.78;95.76
84308;BME280;74486;52.070;5.128;2023-12-29T02:32:07;100673.81;;;9.70;96.38
84308;BME280;74486;52.070;5.128;2023-12-29T02:34:36;100688.88;;;9.76;96.73
84308;BME280;74486;52.070;5.128;2023-12-29T02:37:03;100682.53;;;9.71;98.17
84308;BME280;74486;52.070;5.128;2023-12-29T02:39:29;100681.06;;;9.58;99.96
84308;BME280;74486;52.070;5.128;2023-12-29T02:41:55;100691.72;;;9.45;100.00
84308;BME280;74486;52.070;5.128;2023-12-29T02:44:22;100696.47;;;9.36;100.00
84308;BME280;74486;52.070;5.128;2023-12-29T02:46:47;100681.28;;;9.27;100.00
84308;BME280;74486;52.070;5.128;2023-12-29T02:49:13;100663.75;;;9.25;100.00
84308;BME280;74486;52.070;5.128;2023-12-29T02:51:38;100703.72;;;9.24;100.00
84308;BME280;74486;52.070;5.128;2023-12-29T02:54:04;100686.38;;;9.24;100.00
84308;BME280;74486;52.070;5.128;2023-12-29T02:56:29;100685.38;;;9.22;100.00
84308;BME280;74486;52.070;5.128;2023-12-29T02:58:55;100692.38;;;9.23;100.00
84308;BME280;74486;52.070;5.128;2023-12-29T03:01:22;100694.00;;;9.21;100.00
84308;BME280;74486;52.070;5.128;2023-12-29T03:03:47;100694.75;;;9.19;100.00
84308;BME280;74486;52.070;5.128;2023-12-29T03:06:13;100702.88;;;9.25;100.00
84308;BME280;74486;52.070;5.128;2023-12-29T03:08:38;100692.84;;;9.32;100.00
84308;BME280;74486;52.070;5.128;2023-12-29T03:11:04;100696.47;;;9.36;100.00
84308;BME280;74486;52.070;5.128;2023-12-29T03:13:29;100709.75;;;9.40;100.00
84308;BME280;74486;52.070;5.128;2023-12-29T03:15:54;100699.41;;;9.42;100.00
84308;BME280;74486;52.070;5.128;2023-12-29T03:18:21;100698.28;;;9.37;100.00
84308;BME280;74486;52.070;5.128;2023-12-29T03:20:47;100702.75;;;9.39;100.00
84308;BME280;74486;52.070;5.128;2023-12-29T03:23:12;100686.88;;;9.35;100.00
84308;BME280;74486;52.070;5.128;2023-12-29T03:25:38;100680.47;;;9.28;100.00
84308;BME280;74486;52.070;5.128;2023-12-29T03:28:04;100673.22;;;9.23;100.00
84308;BME280;74486;52.070;5.128;2023-12-29T03:30:29;100674.44;;;9.29;99.93
84308;BME280;74486;52.070;5.128;2023-12-29T03:32:55;100678.53;;;9.24;100.00
84308;BME280;74486;52.070;5.128;2023-12-29T03:35:21;100687.31;;;9.26;100.00
84308;BME280;74486;52.070;5.128;2023-12-29T03:37:47;100685.09;;;9.34;99.97
84308;BME280;74486;52.070;5.128;2023-12-29T03:40:13;100679.22;;;9.38;100.00
84308;BME280;74486;52.070;5.128;2023-12-29T03:42:39;100689.66;;;9.38;100.00
84308;BME280;74486;52.070;5.128;2023-12-29T03:45:06;100681.06;;;9.40;100.00
84308;BME280;74486;52.070;5.128;2023-12-29T03:47:32;100683.63;;;9.39;100.00
84308;BME280;74486;52.070;5.128;2023-12-29T03:49:57;100668.59;;;9.35;100.00
84308;BME280;74486;52.070;5.128;2023-12-29T03:52:24;100664.22;;;9.34;100.00
84308;BME280;74486;52.070;5.128;2023-12-29T03:54:50;100676.75;;;9.23;100.00
84308;BME280;74486;52.070;5.128;2023-12-29T03:57:15;100669.41;;;9.16;100.00
84308;BME280;74486;52.070;5.128;2023-12-29T03:59:41;100664.06;;;9.13;100.00
84308;BME280;74486;52.070;5.128;2023-12-29T04:02:06;100643.13;;;9.11;100.00
84308;BME280;74486;52.070;5.128;2023-12-29T04:04:31;100646.03;;;9.18;100.00
84308;BME280;74486;52.070;5.128;2023-12-29T04:06:57;100633.09;;;9.19;100.00
84308;BME280;74486;52.070;5.128;2023-12-29T04:09:24;100640.81;;;9.18;100.00
84308;BME280;74486;52.070;5.128;2023-12-29T04:11:50;100647.97;;;9.22;100.00
84308;BME280;74486;52.070;5.128;2023-12-29T04:14:15;100650.22;;;9.32;100.00
84308;BME280;74486;52.070;5.128;2023-12-29T04:16:41;100666.47;;;9.44;100.00
84308;BME280;74486;52.070;5.128;2023-12-29T04:19:06;100672.13;;;9.53;99.97
84308;BME280;74486;52.070;5.128;2023-12-29T04:21:32;100651.69;;;9.44;100.00
84308;BME280;74486;52.070;5.128;2023-12-29T04:23:57;100661.31;;;9.45;99.51
84308;BME280;74486;52.070;5.128;2023-12-29T04:26:24;100660.56;;;9.48;99.80
84308;BME280;74486;52.070;5.128;2023-12-29T04:28:49;100652.50;;;9.61;99.22
84308;BME280;74486;52.070;5.128;2023-12-29T04:31:15;100658.41;;;9.57;98.72
84308;BME280;74486;52.070;5.128;2023-12-29T04:33:40;100647.97;;;9.57;98.91
84308;BME280;74486;52.070;5.128;2023-12-29T04:36:06;100661.16;;;9.60;97.49
84308;BME280;74486;52.070;5.128;2023-12-29T04:38:31;100668.06;;;9.59;97.72
84308;BME280;74486;52.070;5.128;2023-12-29T04:40:57;100662.03;;;9.60;97.79
84308;BME280;74486;52.070;5.128;2023-12-29T04:43:24;100667.56;;;9.67;96.53
84308;BME280;74486;52.070;5.128;2023-12-29T04:45:49;100661.31;;;9.63;97.32
84308;BME280;74486;52.070;5.128;2023-12-29T04:48:15;100652.41;;;9.59;97.80
84308;BME280;74486;52.070;5.128;2023-12-29T04:50:40;100655.34;;;9.66;96.85
84308;BME280;74486;52.070;5.128;2023-12-29T04:53:05;100662.13;;;9.62;97.84
84308;BME280;74486;52.070;5.128;2023-12-29T04:55:31;100659.31;;;9.57;97.44
84308;BME280;74486;52.070;5.128;2023-12-29T04:57:56;100653.19;;;9.57;97.96
84308;BME280;74486;52.070;5.128;2023-12-29T05:00:23;100647.88;;;9.55;98.07
84308;BME280;74486;52.070;5.128;2023-12-29T05:02:49;100639.75;;;9.49;98.56
84308;BME280;74486;52.070;5.128;2023-12-29T05:05:14;100647.44;;;9.46;99.08
84308;BME280;74486;52.070;5.128;2023-12-29T05:07:40;100645.59;;;9.44;99.11
84308;BME280;74486;52.070;5.128;2023-12-29T05:10:07;100650.94;;;9.47;98.71
84308;BME280;74486;52.070;5.128;2023-12-29T05:12:32;100655.78;;;9.57;97.43
84308;BME280;74486;52.070;5.128;2023-12-29T05:14:58;100664.31;;;9.53;98.04
84308;BME280;74486;52.070;5.128;2023-12-29T05:17:25;100658.31;;;9.55;97.96
84308;BME280;74486;52.070;5.128;2023-12-29T05:19:50;100646.31;;;9.59;96.98
84308;BME280;74486;52.070;5.128;2023-12-29T05:22:16;100655.72;;;9.55;97.77
84308;BME280;74486;52.070;5.128;2023-12-29T05:24:42;100661.53;;;9.50;97.78
84308;BME280;74486;52.070;5.128;2023-12-29T05:27:07;100652.81;;;9.49;98.53
84308;BME280;74486;52.070;5.128;2023-12-29T05:29:32;100677.19;;;9.50;98.04
84308;BME280;74486;52.070;5.128;2023-12-29T05:31:58;100649.03;;;9.43;99.11
84308;BME280;74486;52.070;5.128;2023-12-29T05:34:25;100644.53;;;9.40;98.82
84308;BME280;74486;52.070;5.128;2023-12-29T05:36:50;100635.75;;;9.38;98.74
84308;BME280;74486;52.070;5.128;2023-12-29T05:39:16;100642.69;;;9.38;98.57
84308;BME280;74486;52.070;5.128;2023-12-29T05:41:41;100639.19;;;9.37;98.59
84308;BME280;74486;52.070;5.128;2023-12-29T05:44:07;100652.34;;;9.40;98.61
84308;BME280;74486;52.070;5.128;2023-12-29T05:46:32;100654.84;;;9.37;98.96
84308;BME280;74486;52.070;5.128;2023-12-29T05:48:58;100661.75;;;9.37;99.76
84308;BME280;74486;52.070;5.128;2023-12-29T05:51:25;100663.59;;;9.39;98.14
84308;BME280;74486;52.070;5.128;2023-12-29T05:53:50;100656.63;;;9.38;97.93
84308;BME280;74486;52.070;5.128;2023-12-29T05:56:16;100643.25;;;9.50;97.25
84308;BME280;74486;52.070;5.128;2023-12-29T05:58:41;100636.34;;;9.50;97.18
84308;BME280;74486;52.070;5.128;2023-12-29T06:01:07;100648.56;;;9.51;97.87
84308;BME280;74486;52.070;5.128;2023-12-29T06:03:32;100631.03;;;9.49;97.92
84308;BME280;74486;52.070;5.128;2023-12-29T06:05:58;100628.41;;;9.49;98.04
84308;BME280;74486;52.070;5.128;2023-12-29T06:08:25;100629.19;;;9.46;97.94
84308;BME280;74486;52.070;5.128;2023-12-29T06:10:50;100631.03;;;9.49;97.61
84308;BME280;74486;52.070;5.128;2023-12-29T06:13:16;100637.38;;;9.54;97.60
84308;BME280;74486;52.070;5.128;2023-12-29T06:15:43;100642.53;;;9.52;97.31
84308;BME280;74486;52.070;5.128;2023-12-29T06:18:09;100634.75;;;9.54;97.51
84308;BME280;74486;52.070;5.128;2023-12-29T06:20:34;100626.78;;;9.51;97.21
84308;BME280;74486;52.070;5.128;2023-12-29T06:23:00;100618.97;;;9.51;96.53
84308;BME280;74486;52.070;5.128;2023-12-29T06:25:27;100636.84;;;9.61;95.61
84308;BME280;74486;52.070;5.128;2023-12-29T06:27:53;100642.88;;;9.60;95.42
84308;BME280;74486;52.070;5.128;2023-12-29T06:30:19;100640.28;;;9.60;95.42
84308;BME280;74486;52.070;5.128;2023-12-29T06:32:45;100635.94;;;9.60;95.83
84308;BME280;74486;52.070;5.128;2023-12-29T06:35:10;100629.00;;;9.61;95.92
84308;BME280;74486;52.070;5.128;2023-12-29T06:37:36;100641.94;;;9.58;96.00
84308;BME280;74486;52.070;5.128;2023-12-29T06:40:01;100643.66;;;9.57;96.05
84308;BME280;74486;52.070;5.128;2023-12-29T06:42:28;100641.94;;;9.58;96.27
84308;BME280;74486;52.070;5.128;2023-12-29T06:44:54;100628.94;;;9.59;96.04
84308;BME280;74486;52.070;5.128;2023-12-29T06:47:19;100635.72;;;9.56;96.35
84308;BME280;74486;52.070;5.128;2023-12-29T06:49:45;100655.19;;;9.63;95.31
84308;BME280;74486;52.070;5.128;2023-12-29T06:52:10;100644.69;;;9.61;95.68
84308;BME280;74486;52.070;5.128;2023-12-29T06:54:36;100634.09;;;9.58;96.31
84308;BME280;74486;52.070;5.128;2023-12-29T06:57:02;100646.25;;;9.57;96.76
84308;BME280;74486;52.070;5.128;2023-12-29T06:59:29;100631.53;;;9.59;95.94
84308;BME280;74486;52.070;5.128;2023-12-29T07:01:54;100631.53;;;9.59;96.68
84308;BME280;74486;52.070;5.128;2023-12-29T07:04:20;100637.44;;;9.55;96.40
84308;BME280;74486;52.070;5.128;2023-12-29T07:06:45;100645.06;;;9.51;97.65
84308;BME280;74486;52.070;5.128;2023-12-29T07:09:13;100643.25;;;9.50;97.75
84308;BME280;74486;52.070;5.128;2023-12-29T07:11:39;100638.94;;;9.50;98.60
84308;BME280;74486;52.070;5.128;2023-12-29T07:14:04;100630.91;;;9.46;98.64
84308;BME280;74486;52.070;5.128;2023-12-29T07:16:31;100632.31;;;9.39;99.54
84308;BME280;74486;52.070;5.128;2023-12-29T07:18:57;100649.91;;;9.43;99.06
84308;BME280;74486;52.070;5.128;2023-12-29T07:21:22;100636.94;;;9.45;99.30
84308;BME280;74486;52.070;5.128;2023-12-29T07:23:48;100641.31;;;9.46;99.21
84308;BME280;74486;52.070;5.128;2023-12-29T07:26:15;100655.88;;;9.41;99.86
84308;BME280;74486;52.070;5.128;2023-12-29T07:28:41;100655.06;;;9.42;100.00
84308;BME280;74486;52.070;5.128;2023-12-29T07:31:06;100652.31;;;9.39;100.00
84308;BME280;74486;52.070;5.128;2023-12-29T07:33:33;100642.00;;;9.42;100.00
84308;BME280;74486;52.070;5.128;2023-12-29T07:35:59;100640.22;;;9.41;100.00
84308;BME280;74486;52.070;5.128;2023-12-29T07:38:25;100649.06;;;9.44;100.00
84308;BME280;74486;52.070;5.128;2023-12-29T07:40:50;100653.16;;;9.39;100.00
84308;BME280;74486;52.070;5.128;2023-12-29T07:43:16;100646.19;;;9.38;100.00
84308;BME280;74486;52.070;5.128;2023-12-29T07:45:41;100661.97;;;9.41;100.00
84308;BME280;74486;52.070;5.128;2023-12-29T07:48:07;100649.91;;;9.43;100.00
84308;BME280;74486;52.070;5.128;2023-12-29T07:50:34;100647.34;;;9.45;100.00
84308;BME280;74486;52.070;5.128;2023-12-29T07:53:00;100655.88;;;9.41;100.00
84308;BME280;74486;52.070;5.128;2023-12-29T07:55:25;100652.28;;;9.56;100.00
84308;BME280;74486;52.070;5.128;2023-12-29T07:57:51;100650.72;;;9.60;100.00
84308;BME280;74486;52.070;5.128;2023-12-29T08:00:17;100660.25;;;9.59;100.00
84308;BME280;74486;52.070;5.128;2023-12-29T08:02:43;100656.00;;;9.62;100.00
84308;BME280;74486;52.070;5.128;2023-12-29T08:05:09;100649.97;;;9.63;100.00
84308;BME280;74486;52.070;5.128;2023-12-29T08:07:36;100660.63;;;9.67;100.00
84308;BME280;74486;52.070;5.128;2023-12-29T08:10:02;100649.22;;;9.65;100.00
84308;BME280;74486;52.070;5.128;2023-12-29T08:12:28;100658.72;;;9.63;100.00
84308;BME280;74486;52.070;5.128;2023-12-29T08:14:53;100654.97;;;9.58;100.00
84308;BME280;74486;52.070;5.128;2023-12-29T08:17:19;100658.19;;;9.52;100.00
84308;BME280;74486;52.070;5.128;2023-12-29T08:19:44;100661.06;;;9.58;100.00
84308;BME280;74486;52.070;5.128;2023-12-29T08:22:10;100666.44;;;9.62;100.00
84308;BME280;74486;52.070;5.128;2023-12-29T08:24:40;100664.53;;;9.57;100.00
84308;BME280;74486;52.070;5.128;2023-12-29T08:27:05;100668.28;;;9.64;100.00
84308;BME280;74486;52.070;5.128;2023-12-29T08:29:31;100660.63;;;9.67;99.73
84308;BME280;74486;52.070;5.128;2023-12-29T08:31:56;100671.00;;;9.66;100.00
84308;BME280;74486;52.070;5.128;2023-12-29T08:34:21;100673.69;;;9.67;99.35
84308;BME280;74486;52.070;5.128;2023-12-29T08:36:47;100675.59;;;9.71;99.62
84308;BME280;74486;52.070;5.128;2023-12-29T08:39:12;100668.69;;;9.72;99.99
84308;BME280;74486;52.070;5.128;2023-12-29T08:41:42;100678.72;;;9.64;100.00
84308;BME280;74486;52.070;5.128;2023-12-29T08:44:07;100693.06;;;9.54;100.00
84308;BME280;74486;52.070;5.128;2023-12-29T08:46:33;100682.47;;;9.51;100.00
84308;BME280;74486;52.070;5.128;2023-12-29T08:48:58;100676.50;;;9.54;100.00
84308;BME280;74486;52.070;5.128;2023-12-29T08:51:24;100686.28;;;9.58;100.00
84308;BME280;74486;52.070;5.128;2023-12-29T08:53:49;100671.66;;;9.62;100.00
84308;BME280;74486;52.070;5.128;2023-12-29T08:56:15;100682.25;;;9.65;100.00
84308;BME280;74486;52.070;5.128;2023-12-29T08:58:42;100674.28;;;9.62;100.00
84308;BME280;74486;52.070;5.128;2023-12-29T09:01:07;100696.50;;;9.71;100.00
84308;BME280;74486;52.070;5.128;2023-12-29T09:03:33;100675.59;;;9.71;100.00
84308;BME280;74486;52.070;5.128;2023-12-29T09:05:58;100655.53;;;9.70;100.00
84308;BME280;74486;52.070;5.128;2023-12-29T09:08:24;100669.41;;;9.69;100.00
84308;BME280;74486;52.070;5.128;2023-12-29T09:10:49;100664.34;;;9.72;99.58
84308;BME280;74486;52.070;5.128;2023-12-29T09:13:15;100684.69;;;9.79;99.83
84308;BME280;74486;52.070;5.128;2023-12-29T09:15:42;100679.47;;;9.79;99.80
84308;BME280;74486;52.070;5.128;2023-12-29T09:18:07;100689.91;;;9.79;99.29
84308;BME280;74486;52.070;5.128;2023-12-29T09:20:33;100697.22;;;9.86;98.84
84308;BME280;74486;52.070;5.128;2023-12-29T09:22:58;100681.81;;;9.92;98.14
84308;BME280;74486;52.070;5.128;2023-12-29T09:25:24;100700.88;;;9.90;98.88
84308;BME280;74486;52.070;5.128;2023-12-29T09:27:49;100697.09;;;10.02;97.24
84308;BME280;74486;52.070;5.128;2023-12-29T09:30:14;100716.81;;;9.96;97.88
84308;BME280;74486;52.070;5.128;2023-12-29T09:32:41;100701.38;;;10.00;97.98
84308;BME280;74486;52.070;5.128;2023-12-29T09:35:07;100690.16;;;10.03;97.81
84308;BME280;74486;52.070;5.128;2023-12-29T09:37:32;100701.88;;;10.11;96.26
84308;BME280;74486;52.070;5.128;2023-12-29T09:39:58;100702.81;;;10.13;96.31
84308;BME280;74486;52.070;5.128;2023-12-29T09:42:24;100695.31;;;10.19;96.26
84308;BME280;74486;52.070;5.128;2023-12-29T09:44:52;100690.31;;;10.24;96.38
84308;BME280;74486;52.070;5.128;2023-12-29T09:47:21;100696.63;;;10.29;94.88
84308;BME280;74486;52.070;5.128;2023-12-29T09:49:49;100692.22;;;10.28;95.17
84308;BME280;74486;52.070;5.128;2023-12-29T09:52:15;100703.09;;;10.37;94.45
84308;BME280;74486;52.070;5.128;2023-12-29T09:54:42;100709.69;;;10.29;95.92
84308;BME280;74486;52.070;5.128;2023-12-29T09:57:08;100703.56;;;10.28;96.27
84308;BME280;74486;52.070;5.128;2023-12-29T09:59:35;100695.00;;;10.31;95.62
84308;BME280;74486;52.070;5.128;2023-12-29T10:02:01;100708.47;;;10.40;95.42
84308;BME280;74486;52.070;5.128;2023-12-29T10:04:27;100698.97;;;10.42;95.14
84308;BME280;74486;52.070;5.128;2023-12-29T10:06:54;100700.63;;;10.59;93.87
84308;BME280;74486;52.070;5.128;2023-12-29T10:09:23;100708.78;;;10.67;93.78
84308;BME280;74486;52.070;5.128;2023-12-29T10:11:50;100685.84;;;10.60;94.24
84308;BME280;74486;52.070;5.128;2023-12-29T10:14:22;100711.22;;;10.62;93.68
84308;BME280;74486;52.070;5.128;2023-12-29T10:16:53;100715.63;;;10.63;93.45
84308;BME280;74486;52.070;5.128;2023-12-29T10:19:23;100718.72;;;10.55;93.74
84308;BME280;74486;52.070;5.128;2023-12-29T10:21:57;100708.19;;;10.53;93.61
84308;BME280;74486;52.070;5.128;2023-12-29T10:24:26;100715.06;;;10.51;94.29
84308;BME280;74486;52.070;5.128;2023-12-29T10:26:51;100704.81;;;10.56;92.75
84308;BME280;74486;52.070;5.128;2023-12-29T10:29:17;100716.03;;;10.53;93.21
84308;BME280;74486;52.070;5.128;2023-12-29T10:31:44;100712.09;;;10.63;93.25
84308;BME280;74486;52.070;5.128;2023-12-29T10:34:19;100726.06;;;10.63;93.26
84308;BME280;74486;52.070;5.128;2023-12-29T10:36:49;100719.53;;;10.54;93.50
84308;BME280;74486;52.070;5.128;2023-12-29T10:39:16;100717.81;;;10.54;93.28
84308;BME280;74486;52.070;5.128;2023-12-29T10:41:41;100736.31;;;10.59;93.05
84308;BME280;74486;52.070;5.128;2023-12-29T10:44:07;100727.00;;;10.65;92.21
84308;BME280;74486;52.070;5.128;2023-12-29T10:46:33;100735.03;;;10.68;92.36
84308;BME280;74486;52.070;5.128;2023-12-29T10:49:06;100735.22;;;10.73;91.67
84308;BME280;74486;52.070;5.128;2023-12-29T10:51:39;100742.16;;;10.72;91.97
84308;BME280;74486;52.070;5.128;2023-12-29T10:54:05;100733.44;;;10.72;91.33
84308;BME280;74486;52.070;5.128;2023-12-29T10:56:32;100736.72;;;10.68;91.37
84308;BME280;74486;52.070;5.128;2023-12-29T10:58:59;100726.41;;;10.71;91.06
84308;BME280;74486;52.070;5.128;2023-12-29T11:01:25;100745.53;;;10.70;91.38
84308;BME280;74486;52.070;5.128;2023-12-29T11:03:58;100736.16;;;10.75;89.77
84308;BME280;74486;52.070;5.128;2023-12-29T11:06:23;100744.09;;;10.76;89.93
84308;BME280;74486;52.070;5.128;2023-12-29T11:08:49;100736.59;;;10.84;88.86
84308;BME280;74486;52.070;5.128;2023-12-29T11:11:15;100736.66;;;10.85;88.48
84308;BME280;74486;52.070;5.128;2023-12-29T11:13:42;100748.16;;;10.89;88.86
84308;BME280;74486;52.070;5.128;2023-12-29T11:16:08;100743.78;;;10.89;88.08
84308;BME280;74486;52.070;5.128;2023-12-29T11:18:35;100746.47;;;10.91;87.76
84308;BME280;74486;52.070;5.128;2023-12-29T11:21:01;100740.81;;;11.01;86.86
84308;BME280;74486;52.070;5.128;2023-12-29T11:23:27;100750.31;;;10.99;88.08
84308;BME280;74486;52.070;5.128;2023-12-29T11:25:52;100743.31;;;10.98;87.63
84308;BME280;74486;52.070;5.128;2023-12-29T11:28:18;100769.41;;;10.97;87.91
84308;BME280;74486;52.070;5.128;2023-12-29T11:30:46;100742.44;;;10.98;88.07
84308;BME280;74486;52.070;5.128;2023-12-29T11:33:16;100756.66;;;11.04;87.94
84308;BME280;74486;52.070;5.128;2023-12-29T11:35:45;100742.22;;;10.93;89.24
84308;BME280;74486;52.070;5.128;2023-12-29T11:38:34;100744.34;;;11.02;88.09
84308;BME280;74486;52.070;5.128;2023-12-29T11:41:09;100749.56;;;11.02;88.89
84308;BME280;74486;52.070;5.128;2023-12-29T11:43:36;100739.69;;;11.15;87.58
84308;BME280;74486;52.070;5.128;2023-12-29T11:46:03;100739.81;;;11.18;85.59
84308;BME280;74486;52.070;5.128;2023-12-29T11:48:54;100748.94;;;11.07;86.41
84308;BME280;74486;52.070;5.128;2023-12-29T11:51:31;100752.16;;;11.21;85.28
84308;BME280;74486;52.070;5.128;2023-12-29T11:53:57;100740.03;;;11.23;85.18
84308;BME280;74486;52.070;5.128;2023-12-29T11:56:23;100737.44;;;11.23;85.04
84308;BME280;74486;52.070;5.128;2023-12-29T11:58:49;100746.41;;;11.29;84.09
84308;BME280;74486;52.070;5.128;2023-12-29T12:01:33;100748.50;;;11.38;83.78
84308;BME280;74486;52.070;5.128;2023-12-29T12:04:00;100745.16;;;11.41;83.05
84308;BME280;74486;52.070;5.128;2023-12-29T12:06:36;100741.31;;;11.32;83.59
84308;BME280;74486;52.070;5.128;2023-12-29T12:09:16;100742.00;;;11.49;83.55
84308;BME280;74486;52.070;5.128;2023-12-29T12:11:42;100743.44;;;11.41;84.88
84308;BME280;74486;52.070;5.128;2023-12-29T12:14:07;100750.56;;;11.45;85.00
84308;BME280;74486;52.070;5.128;2023-12-29T12:16:50;100729.53;;;11.42;84.14
84308;BME280;74486;52.070;5.128;2023-12-29T12:19:16;100729.53;;;11.42;84.72
84308;BME280;74486;52.070;5.128;2023-12-29T12:21:45;100729.03;;;11.52;85.08
84308;BME280;74486;52.070;5.128;2023-12-29T12:24:11;100735.50;;;11.40;85.49
84308;BME280;74486;52.070;5.128;2023-12-29T12:26:36;100722.59;;;11.44;85.32
84308;BME280;74486;52.070;5.128;2023-12-29T12:29:03;100727.84;;;11.65;84.69
84308;BME280;74486;52.070;5.128;2023-12-29T12:31:29;100716.41;;;11.63;85.28
84308;BME280;74486;52.070;5.128;2023-12-29T12:33:56;100720.88;;;11.65;84.80
84308;BME280;74486;52.070;5.128;2023-12-29T12:36:22;100715.16;;;11.74;83.81
84308;BME280;74486;52.070;5.128;2023-12-29T12:38:51;100719.66;;;11.78;83.95
84308;BME280;74486;52.070;5.128;2023-12-29T12:41:16;100712.06;;;11.84;83.38
84308;BME280;74486;52.070;5.128;2023-12-29T12:43:47;100713.59;;;11.58;84.75
84308;BME280;74486;52.070;5.128;2023-12-29T12:46:15;100719.34;;;11.50;85.21
84308;BME280;74486;52.070;5.128;2023-12-29T12:48:42;100716.66;;;11.48;84.93